Time;durP1;ratioP1;P1;durP2;ratioP2;P2;SDS_P1;SDS_P2;PMS_P1;PMS_P2;Temp;Humidity;BMP_temperature;BMP_pressure;BME280_temperature;BME280_humidity;BME280_pressure;Samples;Min_cycle;Max_cycle;Signal;HPM_P1;HPM_P2
2021/07/29 00:01:18;;;;;;;7.88;3.22;;;;;;;29.24;56.03;100832.34;4917780;29;20055;-71
2021/07/29 00:04:04;;;;;;;9.77;3.10;;;;;;;29.42;54.84;100828.81;4916897;29;20052;-72
2021/07/29 00:06:49;;;;;;;9.00;3.17;;;;;;;29.41;54.41;100831.66;4917076;29;20532;-72
2021/07/29 00:09:36;;;;;;;12.68;3.13;;;;;;;29.61;53.04;100825.28;4917137;29;20444;-72
2021/07/29 00:12:22;;;;;;;8.52;3.55;;;;;;;30.03;51.19;100819.31;4917336;29;20099;-72
2021/07/29 00:15:13;;;;;;;6.93;3.38;;;;;;;29.77;51.31;100820.13;4917205;29;20067;-72
2021/07/29 00:20:45;;;;;;;7.68;3.42;;;;;;;30.00;49.95;100813.31;4917902;29;20039;-72
2021/07/29 00:23:31;;;;;;;7.75;3.10;;;;;;;30.01;49.85;100805.06;4916848;29;20032;-72
2021/07/29 00:26:17;;;;;;;10.43;3.72;;;;;;;29.83;49.98;100811.41;4916843;29;20092;-72
2021/07/29 00:29:02;;;;;;;5.13;3.03;;;;;;;29.66;50.65;100802.19;4916799;29;20035;-72
2021/07/29 00:31:48;;;;;;;10.18;2.97;;;;;;;29.30;51.13;100797.56;4917233;29;20032;-71
2021/07/29 00:34:34;;;;;;;12.77;3.72;;;;;;;29.27;52.17;100805.09;4916550;29;20111;-71
2021/07/29 00:37:20;;;;;;;9.98;3.95;;;;;;;29.17;52.22;100801.56;4917518;29;20043;-72
2021/07/29 00:40:07;;;;;;;10.57;3.13;;;;;;;29.39;52.34;100802.09;4916434;29;20032;-71
2021/07/29 00:42:52;;;;;;;9.10;3.25;;;;;;;29.54;52.19;100795.22;4916728;29;20449;-71
2021/07/29 00:45:38;;;;;;;10.07;3.45;;;;;;;29.38;52.46;100799.53;4916487;29;20095;-72
2021/07/29 00:48:24;;;;;;;8.55;3.58;;;;;;;29.36;52.43;100780.78;4917108;29;20101;-72
2021/07/29 00:51:10;;;;;;;11.05;3.33;;;;;;;29.18;53.16;100778.97;4917614;29;20036;-71
2021/07/29 00:53:57;;;;;;;9.00;3.10;;;;;;;28.92;54.17;100767.00;4916600;29;20058;-72
2021/07/29 00:56:44;;;;;;;11.82;3.45;;;;;;;28.92;53.90;100772.41;4916479;29;20111;-72
2021/07/29 00:59:30;;;;;;;7.35;2.90;;;;;;;28.92;54.36;100759.78;4916669;29;20032;-69
2021/07/29 01:02:16;;;;;;;7.95;3.65;;;;;;;28.74;54.58;100757.94;4916826;29;20032;-69
2021/07/29 01:05:02;;;;;;;9.38;3.50;;;;;;;29.03;53.54;100756.97;4919058;29;20020;-69
2021/07/29 01:07:49;;;;;;;7.60;3.17;;;;;;;29.02;53.80;100757.09;4920710;29;20417;-69
2021/07/29 01:10:37;;;;;;;7.22;3.08;;;;;;;28.97;53.95;100756.66;4920272;29;20119;-69
2021/07/29 01:13:23;;;;;;;10.25;3.35;;;;;;;28.92;54.48;100748.97;4920637;29;20141;-69
2021/07/29 01:16:08;;;;;;;9.45;3.30;;;;;;;28.87;54.89;100762.03;4920486;29;20072;-70
2021/07/29 01:18:55;;;;;;;7.57;3.45;;;;;;;28.61;56.59;100766.28;4920469;29;20397;-70
2021/07/29 01:21:41;;;;;;;9.57;3.40;;;;;;;28.71;56.75;100764.47;4919384;29;20028;-70
2021/07/29 01:24:27;;;;;;;9.13;3.70;;;;;;;28.69;56.57;100766.41;4920318;29;20028;-70
2021/07/29 01:27:17;;;;;;;6.57;3.10;;;;;;;28.68;57.35;100767.44;4920034;29;20028;-70
2021/07/29 01:30:03;;;;;;;8.02;3.72;;;;;;;29.14;55.61;100770.31;4920015;29;20042;-70
2021/07/29 01:32:49;;;;;;;9.13;3.55;;;;;;;28.93;56.02;100768.72;4919499;29;20095;-70
2021/07/29 01:35:36;;;;;;;7.78;3.20;;;;;;;28.90;55.39;100769.00;4919560;29;20190;-70
2021/07/29 01:38:21;;;;;;;7.80;3.38;;;;;;;28.99;54.94;100771.69;4920244;29;20032;-71
2021/07/29 01:41:07;;;;;;;9.00;3.30;;;;;;;28.81;55.46;100764.47;4919637;29;20032;-71
2021/07/29 01:43:53;;;;;;;5.03;3.30;;;;;;;29.26;54.10;100763.75;4920170;29;20028;-71
2021/07/29 01:46:39;;;;;;;5.70;3.47;;;;;;;29.18;53.85;100760.94;4919546;29;20040;-71
2021/07/29 01:49:24;;;;;;;7.32;3.15;;;;;;;29.22;53.59;100766.88;4919112;29;20445;-72
2021/07/29 01:52:10;;;;;;;7.25;3.50;;;;;;;29.25;53.29;100766.59;4919622;29;20028;-71
2021/07/29 01:54:56;;;;;;;9.27;3.97;;;;;;;29.05;53.30;100771.16;4919574;29;20052;-71
2021/07/29 01:57:41;;;;;;;7.72;3.35;;;;;;;29.36;52.49;100774.53;4919367;29;20465;-71
2021/07/29 02:00:27;;;;;;;6.07;3.42;;;;;;;29.16;53.48;100775.53;4919420;29;20414;-71
2021/07/29 02:03:13;;;;;;;9.85;3.40;;;;;;;29.39;52.62;100783.19;4919603;29;20091;-71
2021/07/29 02:06:02;;;;;;;9.60;3.63;;;;;;;29.29;52.95;100784.22;4919382;29;20441;-71
2021/07/29 02:08:48;;;;;;;6.88;3.22;;;;;;;28.57;55.65;100781.03;4919673;29;20047;-72
2021/07/29 02:11:35;;;;;;;5.72;3.45;;;;;;;28.87;55.76;100780.94;4918999;29;20028;-71
2021/07/29 02:14:21;;;;;;;8.90;3.40;;;;;;;28.81;61.60;100780.66;4919788;29;20194;-71
2021/07/29 02:17:07;;;;;;;10.07;3.58;;;;;;;28.78;62.83;100786.31;4918245;29;20126;-71
2021/07/29 02:19:53;;;;;;;8.27;3.33;;;;;;;28.54;68.25;100784.03;4919946;29;20028;-71
2021/07/29 02:22:39;;;;;;;7.13;3.47;;;;;;;28.82;67.64;100779.66;4919094;29;20024;-71
2021/07/29 02:25:25;;;;;;;7.60;3.50;;;;;;;28.77;67.73;100781.91;4919299;29;20035;-71
2021/07/29 02:28:10;;;;;;;8.30;4.00;;;;;;;28.70;68.17;100791.56;4918819;29;20027;-71
2021/07/29 02:30:56;;;;;;;11.77;3.53;;;;;;;28.51;68.67;100786.13;4919052;29;20028;-71
2021/07/29 02:33:42;;;;;;;9.40;3.17;;;;;;;28.27;64.65;100780.22;4918561;29;20044;-71
2021/07/29 02:36:28;;;;;;;11.02;3.63;;;;;;;28.31;62.83;100781.66;4918977;29;20064;-71
2021/07/29 02:39:13;;;;;;;10.60;3.90;;;;;;;28.54;62.36;100786.72;4918720;29;20488;-71
2021/07/29 02:41:59;;;;;;;6.07;3.85;;;;;;;28.60;61.97;100788.84;4918560;29;20068;-71
2021/07/29 02:44:46;;;;;;;7.57;3.58;;;;;;;28.84;60.63;100789.31;4918804;29;20024;-71
2021/07/29 02:47:31;;;;;;;7.63;3.75;;;;;;;28.72;62.25;100789.59;4917875;29;20024;-71
2021/07/29 02:50:17;;;;;;;10.18;3.78;;;;;;;28.49;64.98;100788.97;4918800;29;20028;-71
2021/07/29 02:53:04;;;;;;;7.57;3.63;;;;;;;28.60;64.94;100790.72;4918508;29;20027;-71
2021/07/29 02:55:49;;;;;;;7.32;3.67;;;;;;;28.26;65.47;100787.47;4918628;29;20038;-71
2021/07/29 02:58:36;;;;;;;14.73;4.05;;;;;;;28.37;64.85;100783.81;4918164;29;20032;-72
2021/07/29 03:01:21;;;;;;;8.32;3.97;;;;;;;28.49;64.57;100788.97;4918793;29;20036;-71
2021/07/29 03:04:07;;;;;;;10.40;4.25;;;;;;;28.53;64.81;100784.16;4918103;29;20020;-71
2021/07/29 03:06:54;;;;;;;11.57;4.22;;;;;;;28.51;66.39;100787.00;4918366;29;20029;-72
2021/07/29 03:09:40;;;;;;;9.75;4.25;;;;;;;28.21;75.63;100789.69;4918083;29;20123;-71
2021/07/29 03:12:26;;;;;;;8.57;4.15;;;;;;;28.41;76.07;100796.88;4918151;29;20042;-71
2021/07/29 03:15:11;;;;;;;9.32;3.88;;;;;;;28.11;81.93;100794.22;4918511;29;20040;-71
2021/07/29 03:17:58;;;;;;;13.07;4.10;;;;;;;27.90;82.37;100796.13;4917977;29;20036;-71
2021/07/29 03:20:43;;;;;;;8.65;3.88;;;;;;;28.34;79.40;100798.41;4918501;29;20036;-71
2021/07/29 03:23:29;;;;;;;7.63;4.35;;;;;;;28.05;82.54;100802.88;4917899;29;20028;-71
2021/07/29 03:26:15;;;;;;;11.60;4.47;;;;;;;27.94;83.47;100799.38;4918089;29;20453;-71
2021/07/29 03:29:01;;;;;;;9.48;4.05;;;;;;;27.87;85.38;100800.91;4918281;29;20028;-71
2021/07/29 03:31:46;;;;;;;16.05;4.45;;;;;;;27.78;83.69;100797.16;4919509;29;20128;-71
2021/07/29 03:34:32;;;;;;;10.90;4.20;;;;;;;27.66;80.25;100810.81;4917189;29;20079;-70
2021/07/29 03:37:18;;;;;;;14.77;4.35;;;;;;;27.99;79.18;100806.06;4918069;29;20027;-71
2021/07/29 03:40:04;;;;;;;14.73;4.45;;;;;;;28.21;78.61;100810.44;4917580;29;20116;-72
2021/07/29 03:42:50;;;;;;;12.82;4.90;;;;;;;28.51;75.79;100818.47;4917547;29;20032;-71
2021/07/29 03:45:38;;;;;;;15.75;4.53;;;;;;;28.46;76.57;100816.22;4917572;29;20361;-71
2021/07/29 03:48:24;;;;;;;16.38;4.47;;;;;;;28.56;73.98;100827.03;4917686;29;20075;-71
2021/07/29 03:51:13;;;;;;;11.35;4.40;;;;;;;28.20;77.67;100824.91;4917486;29;20032;-71
2021/07/29 03:53:58;;;;;;;12.10;4.28;;;;;;;28.04;78.16;100821.84;4917269;29;20028;-71
2021/07/29 03:56:44;;;;;;;11.93;4.60;;;;;;;28.21;75.67;100800.47;4917354;29;20028;-71
2021/07/29 03:59:30;;;;;;;11.23;4.55;;;;;;;28.04;77.23;100803.81;4917386;29;20373;-71
2021/07/29 04:02:16;;;;;;;12.15;4.70;;;;;;;28.00;77.83;100812.34;4917735;29;20083;-70
2021/07/29 04:05:03;;;;;;;15.38;4.35;;;;;;;28.10;76.99;100810.53;4917106;29;20504;-71
2021/07/29 04:07:48;;;;;;;14.27;4.40;;;;;;;28.32;76.12;100811.16;4917348;29;20381;-71
2021/07/29 04:10:34;;;;;;;15.25;4.47;;;;;;;28.03;76.15;100821.00;4917123;29;20028;-71
2021/07/29 04:13:20;;;;;;;6.93;4.28;;;;;;;28.18;76.03;100818.78;4917262;29;20034;-70
2021/07/29 04:16:06;;;;;;;11.70;4.68;;;;;;;28.44;74.12;100812.78;4916793;29;20054;-71
2021/07/29 04:18:51;;;;;;;10.95;4.32;;;;;;;28.60;78.21;100817.69;4917554;29;20043;-70
2021/07/29 04:21:37;;;;;;;14.93;4.93;;;;;;;28.78;74.87;100822.25;4916736;29;20032;-70
2021/07/29 04:24:23;;;;;;;9.93;4.80;;;;;;;28.79;82.35;100828.47;4917325;29;20028;-71
2021/07/29 04:27:08;;;;;;;14.70;4.72;;;;;;;28.53;100.00;100821.91;4916793;29;20381;-70
2021/07/29 04:29:54;;;;;;;10.77;4.60;;;;;;;28.28;100.00;100823.22;4916847;29;20043;-70
2021/07/29 04:32:40;;;;;;;16.08;4.78;;;;;;;28.42;100.00;100830.09;4916933;29;20028;-72
2021/07/29 04:35:26;;;;;;;18.67;5.45;;;;;;;27.92;100.00;100834.53;4916401;29;20028;-70
2021/07/29 04:38:11;;;;;;;15.80;5.55;;;;;;;27.33;100.00;100836.97;4917498;29;20028;-71
2021/07/29 04:41:05;;;;;;;15.57;6.50;;;;;;;27.69;100.00;100835.66;4921202;29;20479;-71
2021/07/29 04:43:52;;;;;;;23.42;6.40;;;;;;;27.86;100.00;100828.84;4920949;29;20062;-70
2021/07/29 04:46:39;;;;;;;17.45;5.97;;;;;;;27.32;100.00;100823.63;4920479;29;20032;-70
2021/07/29 04:49:24;;;;;;;17.05;6.13;;;;;;;27.77;100.00;100826.91;4920605;29;20082;-70
2021/07/29 04:52:10;;;;;;;16.42;6.05;;;;;;;27.75;100.00;100821.66;4920619;29;20032;-70
2021/07/29 04:54:56;;;;;;;19.63;5.93;;;;;;;27.45;100.00;100825.16;4920547;29;20107;-72
2021/07/29 04:57:42;;;;;;;17.52;5.88;;;;;;;27.47;100.00;100824.19;4920167;29;20028;-70
2021/07/29 05:00:29;;;;;;;20.05;5.95;;;;;;;27.79;100.00;100827.63;4921416;29;20051;-70
2021/07/29 05:03:15;;;;;;;12.75;5.82;;;;;;;27.56;100.00;100832.31;4920468;29;20036;-70
2021/07/29 05:06:01;;;;;;;15.63;6.20;;;;;;;27.75;100.00;100835.13;4920010;29;20066;-70
2021/07/29 05:08:46;;;;;;;15.95;6.13;;;;;;;27.66;100.00;100843.13;4920741;29;20385;-71
2021/07/29 05:11:32;;;;;;;15.05;5.93;;;;;;;26.85;100.00;100840.19;4920306;29;20115;-70
2021/07/29 05:14:18;;;;;;;19.00;6.28;;;;;;;27.23;100.00;100848.63;4920457;29;20046;-71
2021/07/29 05:17:04;;;;;;;17.77;6.88;;;;;;;27.39;100.00;100843.66;4919840;29;20032;-70
2021/07/29 05:19:50;;;;;;;16.27;6.15;;;;;;;27.21;100.00;100850.63;4920918;29;20477;-70
2021/07/29 05:22:36;;;;;;;24.35;6.57;;;;;;;27.80;100.00;100851.72;4919648;29;20074;-70
2021/07/29 05:25:22;;;;;;;21.25;7.07;;;;;;;27.76;100.00;100857.53;4919930;29;20341;-70
2021/07/29 05:28:08;;;;;;;15.70;5.80;;;;;;;27.98;99.89;100852.88;4920139;29;20429;-70
2021/07/29 05:30:54;;;;;;;16.17;5.90;;;;;;;28.26;98.79;100848.59;4919861;29;20043;-71
2021/07/29 05:33:40;;;;;;;16.38;6.30;;;;;;;28.75;96.18;100844.09;4919745;29;20041;-70
2021/07/29 05:36:25;;;;;;;13.10;5.00;;;;;;;28.29;94.25;100843.78;4920230;29;20509;-70
2021/07/29 05:39:11;;;;;;;15.57;5.50;;;;;;;28.56;93.11;100844.03;4919828;29;20074;-71
2021/07/29 05:41:57;;;;;;;13.30;5.35;;;;;;;27.94;97.44;100854.13;4919396;29;20513;-70
2021/07/29 05:44:43;;;;;;;19.00;5.65;;;;;;;28.69;95.67;100844.63;4920000;29;20027;-70
2021/07/29 05:47:29;;;;;;;17.77;6.32;;;;;;;28.78;97.16;100838.44;4919626;29;20047;-71
2021/07/29 05:50:14;;;;;;;20.00;6.03;;;;;;;28.98;97.00;100836.59;4918954;29;20063;-71
2021/07/29 05:53:01;;;;;;;13.23;5.55;;;;;;;28.62;96.96;100842.63;4919589;29;20040;-70
2021/07/29 05:55:47;;;;;;;14.88;5.40;;;;;;;28.31;98.15;100833.72;4919232;29;20032;-71
2021/07/29 05:58:33;;;;;;;17.17;5.85;;;;;;;28.46;97.15;100832.41;4919486;29;20032;-71
2021/07/29 06:01:20;;;;;;;14.50;6.28;;;;;;;29.02;93.63;100841.63;4919591;29;20040;-71
2021/07/29 06:04:06;;;;;;;16.58;5.93;;;;;;;29.02;92.68;100836.22;4919434;29;20038;-71
2021/07/29 06:06:53;;;;;;;16.98;5.78;;;;;;;28.77;95.29;100842.09;4919693;29;20034;-71
2021/07/29 06:09:38;;;;;;;12.73;6.15;;;;;;;28.64;93.36;100840.69;4918790;29;20410;-71
2021/07/29 06:12:24;;;;;;;14.82;5.80;;;;;;;28.71;94.26;100831.88;4919360;29;20059;-71
2021/07/29 06:15:10;;;;;;;12.80;5.50;;;;;;;28.91;89.22;100844.41;4919016;29;20036;-71
2021/07/29 06:17:59;;;;;;;11.57;5.85;;;;;;;29.05;93.29;100838.59;4918901;29;20024;-70
2021/07/29 06:20:46;;;;;;;11.27;5.68;;;;;;;29.33;94.73;100840.47;4919116;29;20489;-70
2021/07/29 06:23:31;;;;;;;15.23;6.38;;;;;;;29.63;98.77;100845.72;4918931;29;20064;-72
2021/07/29 06:26:17;;;;;;;14.70;6.82;;;;;;;29.96;98.74;100839.81;4918803;29;20087;-71
2021/07/29 06:29:05;;;;;;;17.88;6.82;;;;;;;29.86;100.00;100838.97;4918826;29;20070;-71
2021/07/29 06:31:51;;;;;;;18.35;7.13;;;;;;;30.18;100.00;100839.47;4918934;29;20036;-71
2021/07/29 06:34:37;;;;;;;17.83;7.22;;;;;;;29.73;100.00;100834.91;4918282;29;20067;-70
2021/07/29 06:37:23;;;;;;;15.02;6.65;;;;;;;29.39;100.00;100836.34;4918735;29;20036;-71
2021/07/29 06:40:09;;;;;;;21.52;8.25;;;;;;;29.12;100.00;100826.25;4918905;29;20183;-71
2021/07/29 06:42:55;;;;;;;17.90;8.13;;;;;;;29.67;100.00;100827.38;4918581;29;20028;-70
2021/07/29 06:45:41;;;;;;;17.58;7.25;;;;;;;29.99;100.00;100820.59;4918922;29;20099;-71
2021/07/29 06:48:26;;;;;;;10.98;6.88;;;;;;;30.11;100.00;100819.41;4918833;29;20039;-71
2021/07/29 06:51:12;;;;;;;14.27;7.25;;;;;;;29.86;100.00;100824.63;4919331;29;20505;-70
2021/07/29 06:53:59;;;;;;;18.08;6.85;;;;;;;29.84;100.00;100810.41;4918751;29;20116;-70
2021/07/29 06:56:48;;;;;;;17.95;6.60;;;;;;;30.12;100.00;100814.84;4919486;29;20161;-72
2021/07/29 06:59:35;;;;;;;16.83;7.30;;;;;;;30.39;98.74;100810.34;4918844;29;20032;-71
2021/07/29 07:02:20;;;;;;;18.85;6.65;;;;;;;30.55;97.67;100813.25;4919438;29;20055;-71
2021/07/29 07:10:17;;;;;;;16.88;7.10;;;;;;;30.57;98.84;100815.78;5058045;23;20401;-72
2021/07/29 07:13:02;;;;;;;14.90;7.25;;;;;;;31.05;97.43;100816.31;4899224;29;20300;-72
2021/07/29 07:15:48;;;;;;;15.30;7.28;;;;;;;31.03;99.34;100815.63;4899886;29;20100;-69
2021/07/29 07:18:34;;;;;;;17.60;6.82;;;;;;;31.29;98.43;100822.84;4901241;29;20502;-71
2021/07/29 07:21:20;;;;;;;13.13;6.13;;;;;;;31.95;95.95;100820.47;4901389;29;20028;-72
2021/07/29 07:24:06;;;;;;;12.88;6.28;;;;;;;31.38;99.04;100821.06;4900266;29;20131;-71
2021/07/29 07:26:52;;;;;;;13.02;6.07;;;;;;;31.24;93.20;100827.88;4900780;29;20414;-72
2021/07/29 07:29:40;;;;;;;11.15;6.18;;;;;;;31.11;93.06;100821.13;4903576;29;20100;-71
2021/07/29 07:32:25;;;;;;;14.32;6.38;;;;;;;31.37;94.19;100823.94;4903409;29;20032;-72
2021/07/29 07:35:11;;;;;;;14.05;6.50;;;;;;;31.78;90.00;100829.50;4899861;29;20103;-72
2021/07/29 07:37:57;;;;;;;15.27;6.32;;;;;;;31.69;91.89;100833.13;4899878;29;20032;-72
2021/07/29 07:40:44;;;;;;;15.82;6.32;;;;;;;31.72;92.17;100831.97;4898883;29;20033;-72
2021/07/29 07:43:29;;;;;;;15.95;6.38;;;;;;;32.20;90.15;100826.84;4901153;29;20025;-71
2021/07/29 07:46:15;;;;;;;14.88;6.38;;;;;;;31.57;93.43;100841.69;4899039;29;20052;-70
2021/07/29 07:49:01;;;;;;;14.52;6.38;;;;;;;31.84;94.17;100845.13;4899828;29;20033;-70
2021/07/29 07:51:47;;;;;;;11.98;6.35;;;;;;;32.10;92.55;100845.94;4900293;29;20458;-70
2021/07/29 07:54:32;;;;;;;12.25;6.18;;;;;;;31.85;94.79;100849.53;4900935;29;20044;-70
2021/07/29 07:57:18;;;;;;;11.70;6.22;;;;;;;32.53;89.97;100854.00;4900816;29;20024;-71
2021/07/29 08:00:05;;;;;;;15.43;6.10;;;;;;;32.07;91.61;100870.69;4899975;29;20024;-72
2021/07/29 08:02:50;;;;;;;11.43;6.25;;;;;;;31.93;92.14;100871.28;4899476;29;20096;-72
2021/07/29 08:05:36;;;;;;;10.93;5.80;;;;;;;32.23;88.25;100870.78;4901087;29;20044;-72
2021/07/29 08:08:22;;;;;;;9.95;6.10;;;;;;;32.18;89.35;100859.56;4898487;29;20041;-70
2021/07/29 08:11:08;;;;;;;11.57;6.00;;;;;;;32.57;87.40;100857.22;4899655;29;20454;-72
2021/07/29 08:13:57;;;;;;;11.93;5.97;;;;;;;32.99;82.78;100845.31;4898314;29;20028;-72
2021/07/29 08:16:43;;;;;;;10.40;6.07;;;;;;;33.38;79.95;100842.84;4899638;29;20036;-71
2021/07/29 08:19:29;;;;;;;8.20;5.78;;;;;;;33.05;79.75;100847.38;4899290;29;20040;-70
2021/07/29 08:22:15;;;;;;;13.43;5.63;;;;;;;33.57;76.13;100846.09;4899656;29;20501;-70
2021/07/29 08:25:01;;;;;;;9.13;5.68;;;;;;;33.65;75.85;100845.22;4899452;29;20369;-71
2021/07/29 08:27:47;;;;;;;10.00;5.30;;;;;;;33.88;73.49;100838.09;4899868;29;20021;-71
2021/07/29 08:30:33;;;;;;;10.43;6.07;;;;;;;34.10;72.64;100832.75;4899402;29;20056;-71
2021/07/29 08:33:19;;;;;;;12.20;5.63;;;;;;;34.16;74.05;100836.66;4899269;29;20168;-71
2021/07/29 08:36:10;;;;;;;10.30;5.70;;;;;;;34.78;68.42;100833.84;4899106;29;20071;-71
2021/07/29 08:38:56;;;;;;;11.43;5.95;;;;;;;34.50;68.08;100820.88;4898844;29;20369;-71
2021/07/29 08:41:42;;;;;;;11.00;5.85;;;;;;;34.10;68.42;100819.16;4898343;29;20056;-71
2021/07/29 08:44:27;;;;;;;14.35;6.10;;;;;;;33.62;70.78;100815.66;4898526;29;20111;-71
2021/07/29 08:47:20;;;;;;;20.27;6.25;;;;;;;34.11;72.91;100809.97;4899693;29;20453;-71
2021/07/29 08:50:07;;;;;;;16.08;6.60;;;;;;;34.05;69.63;100807.97;4899261;29;20449;-72
2021/07/29 08:52:53;;;;;;;12.38;6.30;;;;;;;34.63;66.27;100805.69;4899457;29;20537;-71
2021/07/29 08:55:38;;;;;;;18.17;6.28;;;;;;;34.93;65.57;100810.31;4899248;29;20032;-71
2021/07/29 08:58:24;;;;;;;10.93;5.50;;;;;;;35.31;63.36;100818.56;4899877;29;20025;-71
2021/07/29 09:01:12;;;;;;;11.75;6.60;;;;;;;34.96;62.69;100814.53;4900461;29;20088;-71
2021/07/29 09:04:10;;;;;;;14.63;6.00;;;;;;;35.83;59.41;100811.28;4900632;29;20028;-72
2021/07/29 09:07:02;;;;;;;14.02;6.20;;;;;;;35.67;63.14;100817.69;4899192;29;20044;-71
2021/07/29 09:09:50;;;;;;;19.08;6.32;;;;;;;35.49;62.76;100821.78;4899529;29;20453;-69
2021/07/29 09:12:36;;;;;;;12.55;5.70;;;;;;;35.48;62.34;100812.78;4900593;29;20091;-70
2021/07/29 09:15:21;;;;;;;13.13;6.07;;;;;;;35.76;63.13;100815.75;4898907;29;20525;-69
2021/07/29 09:18:08;;;;;;;13.50;5.85;;;;;;;35.31;63.07;100816.66;4897826;29;20024;-69
2021/07/29 09:21:10;;;;;;;11.35;5.50;;;;;;;35.56;62.53;100812.72;4898693;29;20176;-71
2021/07/29 09:24:07;;;;;;;14.25;5.90;;;;;;;35.76;62.56;100808.44;4897908;29;20163;-70
2021/07/29 09:26:59;;;;;;;13.00;6.25;;;;;;;35.95;60.59;100796.13;4902477;29;20458;-70
2021/07/29 09:29:45;;;;;;;12.23;5.72;;;;;;;35.92;61.75;100786.41;4902243;29;20096;-70
2021/07/29 09:32:31;;;;;;;12.98;6.35;;;;;;;35.92;60.06;100791.03;4902097;29;20032;-70
2021/07/29 09:35:39;;;;;;;11.55;5.90;;;;;;;36.00;60.87;100780.88;4901244;29;20056;-70
2021/07/29 09:38:32;;;;;;;16.67;6.05;;;;;;;35.98;59.37;100788.41;4901675;29;20096;-70
2021/07/29 09:41:27;;;;;;;17.05;6.93;;;;;;;36.29;59.71;100789.09;4901616;29;20036;-71
2021/07/29 09:44:14;;;;;;;12.40;6.05;;;;;;;36.47;59.19;100781.31;4901897;29;20032;-71
2021/07/29 09:47:03;;;;;;;14.73;6.03;;;;;;;37.01;57.00;100790.78;4900924;29;20112;-71
2021/07/29 09:49:50;;;;;;;17.17;6.13;;;;;;;36.73;58.36;100783.53;4901937;29;20058;-72
2021/07/29 09:52:38;;;;;;;15.70;6.35;;;;;;;36.55;56.82;100778.47;4901839;29;20040;-72
2021/07/29 09:55:27;;;;;;;14.75;6.35;;;;;;;36.55;58.16;100774.88;4902136;29;20128;-73
2021/07/29 10:57:07;;;;;;;13.65;7.40;;;;;;;37.47;52.28;100736.53;5818828;23;21563;-71
2021/07/29 10:59:53;;;;;;;15.70;7.13;;;;;;;37.91;52.46;100735.16;4919108;29;20062;-71
2021/07/29 11:02:48;;;;;;;14.13;6.50;;;;;;;38.20;50.32;100737.66;4918855;29;20024;-71
2021/07/29 11:05:38;;;;;;;16.27;7.45;;;;;;;37.97;50.44;100745.28;4919332;29;20028;-70
2021/07/29 11:08:31;;;;;;;14.93;6.72;;;;;;;38.48;48.81;100729.34;4918925;29;20126;-71
2021/07/29 11:11:17;;;;;;;19.33;6.57;;;;;;;38.09;50.79;100723.72;4918189;29;20453;-70
2021/07/29 11:14:03;;;;;;;21.92;6.68;;;;;;;37.71;52.31;100730.63;4918339;29;20092;-71
2021/07/29 11:16:50;;;;;;;12.50;6.53;;;;;;;37.68;53.11;100722.84;4918215;29;20034;-71
2021/07/29 11:19:46;;;;;;;16.92;6.80;;;;;;;37.79;51.46;100720.38;4918158;29;20028;-71
2021/07/29 11:22:46;;;;;;;14.32;6.80;;;;;;;37.81;51.39;100723.75;4918214;29;20094;-72
2021/07/29 11:25:33;;;;;;;14.82;6.88;;;;;;;38.24;50.61;100721.66;4917696;29;20028;-71
2021/07/29 11:28:19;;;;;;;14.75;7.28;;;;;;;38.53;48.85;100713.97;4917883;29;20032;-71
2021/07/29 11:31:05;;;;;;;15.88;7.07;;;;;;;38.08;50.49;100706.44;4917774;29;20111;-72
2021/07/29 11:33:52;;;;;;;16.50;7.05;;;;;;;38.37;47.66;100708.84;4918271;29;20351;-72
2021/07/29 11:36:38;;;;;;;15.43;6.95;;;;;;;39.09;47.30;100710.94;4918274;29;20059;-71
2021/07/29 11:39:27;;;;;;;14.40;7.30;;;;;;;38.57;48.87;100714.44;4917769;29;20028;-71
2021/07/29 11:42:13;;;;;;;19.25;7.15;;;;;;;38.61;48.04;100704.75;4917700;29;20461;-71
2021/07/29 11:44:59;;;;;;;11.52;6.45;;;;;;;38.71;47.41;100706.03;4917388;29;20047;-72
2021/07/29 11:47:45;;;;;;;15.43;7.00;;;;;;;38.85;47.49;100707.72;4917457;29;20439;-71
2021/07/29 11:50:41;;;;;;;17.05;6.85;;;;;;;38.84;46.86;100699.69;4916583;29;20035;-71
2021/07/29 11:53:39;;;;;;;14.35;6.68;;;;;;;39.23;46.31;100699.75;4917858;29;20465;-72
2021/07/29 11:56:25;;;;;;;16.92;6.93;;;;;;;39.55;46.16;100692.53;4918079;29;20465;-72
2021/07/29 11:59:12;;;;;;;18.02;6.55;;;;;;;39.53;45.41;100691.94;4917783;29;20052;-70
2021/07/29 12:01:58;;;;;;;15.95;6.72;;;;;;;39.46;46.12;100699.31;4917825;29;20143;-70
2021/07/29 12:04:46;;;;;;;10.50;6.38;;;;;;;39.64;44.59;100689.34;4917246;29;20335;-72
2021/07/29 12:07:34;;;;;;;15.98;7.22;;;;;;;38.91;46.05;100686.03;4917269;29;20036;-72
2021/07/29 12:10:25;;;;;;;20.33;6.95;;;;;;;39.20;44.79;100685.63;4917947;29;20042;-72
2021/07/29 12:13:11;;;;;;;14.38;6.80;;;;;;;39.16;43.92;100676.13;4917385;29;20032;-72
2021/07/29 12:15:58;;;;;;;13.40;6.60;;;;;;;39.36;44.83;100677.00;4917018;29;20518;-71
2021/07/29 12:18:43;;;;;;;14.45;6.85;;;;;;;39.68;43.34;100667.84;4917783;29;20032;-71
2021/07/29 12:21:33;;;;;;;22.33;7.30;;;;;;;39.53;40.18;100667.25;4917169;29;20024;-72
2021/07/29 12:24:19;;;;;;;14.48;7.10;;;;;;;39.62;40.42;100658.56;4917726;29;20052;-72
2021/07/29 12:27:06;;;;;;;22.00;7.32;;;;;;;39.53;40.72;100659.00;4916951;29;20115;-71
2021/07/29 12:29:52;;;;;;;20.75;7.10;;;;;;;39.53;38.69;100650.78;4917077;29;20032;-71
2021/07/29 12:32:38;;;;;;;16.33;6.88;;;;;;;39.84;38.32;100650.91;4917094;29;20028;-71
2021/07/29 12:35:24;;;;;;;16.00;7.13;;;;;;;40.17;38.01;100654.34;4916844;29;20103;-71
2021/07/29 12:38:11;;;;;;;35.17;8.55;;;;;;;39.97;37.11;100642.63;4917051;29;20115;-72
2021/07/29 12:40:57;;;;;;;17.35;6.90;;;;;;;39.98;37.10;100645.16;4917146;29;20441;-71
2021/07/29 12:43:43;;;;;;;15.30;7.35;;;;;;;39.99;36.03;100632.25;4917056;29;20107;-72
2021/07/29 12:46:29;;;;;;;16.23;7.30;;;;;;;40.36;35.99;100634.16;4917067;29;20118;-72
2021/07/29 12:49:16;;;;;;;17.88;7.10;;;;;;;39.87;36.46;100629.38;4916912;29;20036;-72
2021/07/29 12:52:02;;;;;;;17.55;7.05;;;;;;;39.73;36.40;100632.34;4917077;29;20177;-72
2021/07/29 12:55:11;;;;;;;21.38;6.90;;;;;;;40.02;36.54;100629.06;4917281;29;20441;-71
2021/07/29 12:57:57;;;;;;;14.65;6.57;;;;;;;40.36;35.42;100624.03;4916763;29;20056;-71
2021/07/29 13:00:45;;;;;;;18.15;7.03;;;;;;;40.30;35.64;100618.59;4919233;29;20024;-71
2021/07/29 13:03:37;;;;;;;12.07;6.60;;;;;;;39.96;35.88;100617.06;4919681;29;20026;-71
2021/07/29 13:06:24;;;;;;;19.00;7.20;;;;;;;39.76;36.33;100615.44;4920335;29;20110;-72
2021/07/29 13:09:10;;;;;;;24.80;7.65;;;;;;;39.83;35.58;100617.13;4920773;29;20032;-73
2021/07/29 13:11:55;;;;;;;20.70;8.13;;;;;;;39.71;36.58;100615.25;4920425;29;20028;-71
2021/07/29 13:14:41;;;;;;;22.75;7.57;;;;;;;39.84;36.78;100613.31;4920402;29;20024;-71
2021/07/29 13:17:27;;;;;;;21.67;7.53;;;;;;;40.00;36.27;100620.19;4920485;29;20032;-72
2021/07/29 13:20:13;;;;;;;18.55;7.45;;;;;;;40.05;35.35;100614.91;4920018;29;20362;-72
2021/07/29 13:22:59;;;;;;;20.17;7.20;;;;;;;40.33;34.46;100618.16;4920291;29;20032;-72
2021/07/29 13:25:47;;;;;;;16.05;6.95;;;;;;;40.40;34.00;100613.44;4920232;29;20035;-72
2021/07/29 13:28:33;;;;;;;17.45;7.50;;;;;;;40.18;34.25;100604.75;4920235;29;20064;-72
2021/07/29 13:31:19;;;;;;;18.15;7.28;;;;;;;38.92;37.44;100608.25;4919910;29;20028;-72
2021/07/29 13:34:06;;;;;;;21.58;7.88;;;;;;;39.23;38.28;100590.06;4920085;29;20036;-72
2021/07/29 13:36:55;;;;;;;17.45;8.15;;;;;;;38.98;39.00;100593.69;4919892;29;20028;-72
2021/07/29 13:39:43;;;;;;;15.75;7.05;;;;;;;39.19;38.15;100590.69;4920186;29;20373;-70
2021/07/29 13:42:28;;;;;;;19.00;7.22;;;;;;;39.28;38.05;100586.69;4919982;29;20032;-72
2021/07/29 13:45:20;;;;;;;22.05;7.45;;;;;;;39.04;37.67;100584.63;4919715;29;20020;-72
2021/07/29 13:48:06;;;;;;;33.72;8.05;;;;;;;39.22;37.21;100576.56;4919780;29;20111;-72
2021/07/29 13:50:52;;;;;;;15.82;8.10;;;;;;;39.33;36.80;100582.22;4919887;29;20038;-72
2021/07/29 13:53:38;;;;;;;22.73;7.60;;;;;;;39.04;36.89;100574.50;4919502;29;20040;-73